sensor_id;sensor_type;location;lat;lon;timestamp;P1;durP1;ratioP1;P2;durP2;ratioP2
76852;SDS011;65825;52.232;10.566;2024-01-30T00:02:24;9.33;;;6.10;;
76852;SDS011;65825;52.232;10.566;2024-01-30T00:04:50;9.43;;;5.90;;
76852;SDS011;65825;52.232;10.566;2024-01-30T00:07:15;13.83;;;6.57;;
76852;SDS011;65825;52.232;10.566;2024-01-30T00:09:40;11.60;;;6.63;;
76852;SDS011;65825;52.232;10.566;2024-01-30T00:12:06;9.60;;;5.60;;
76852;SDS011;65825;52.232;10.566;2024-01-30T00:14:31;10.40;;;5.72;;
76852;SDS011;65825;52.232;10.566;2024-01-30T00:16:57;9.17;;;6.03;;
76852;SDS011;65825;52.232;10.566;2024-01-30T00:19:22;11.30;;;5.77;;
76852;SDS011;65825;52.232;10.566;2024-01-30T00:21:47;9.47;;;5.90;;
76852;SDS011;65825;52.232;10.566;2024-01-30T00:24:12;7.97;;;5.33;;
76852;SDS011;65825;52.232;10.566;2024-01-30T00:26:38;13.10;;;6.23;;
76852;SDS011;65825;52.232;10.566;2024-01-30T00:29:03;9.73;;;5.67;;
76852;SDS011;65825;52.232;10.566;2024-01-30T00:31:28;9.07;;;5.28;;
76852;SDS011;65825;52.232;10.566;2024-01-30T00:33:54;10.43;;;6.43;;
76852;SDS011;65825;52.232;10.566;2024-01-30T00:36:19;9.63;;;5.77;;
76852;SDS011;65825;52.232;10.566;2024-01-30T00:38:44;7.83;;;5.50;;
76852;SDS011;65825;52.232;10.566;2024-01-30T00:41:10;7.47;;;5.73;;
76852;SDS011;65825;52.232;10.566;2024-01-30T00:43:35;10.43;;;6.38;;
76852;SDS011;65825;52.232;10.566;2024-01-30T00:46:01;9.52;;;5.63;;
76852;SDS011;65825;52.232;10.566;2024-01-30T00:48:26;10.23;;;6.63;;
76852;SDS011;65825;52.232;10.566;2024-01-30T00:50:52;11.60;;;6.13;;
76852;SDS011;65825;52.232;10.566;2024-01-30T00:53:17;10.73;;;6.10;;
76852;SDS011;65825;52.232;10.566;2024-01-30T00:55:43;10.30;;;5.75;;
76852;SDS011;65825;52.232;10.566;2024-01-30T00:58:08;10.00;;;5.50;;
76852;SDS011;65825;52.232;10.566;2024-01-30T01:00:33;9.17;;;5.80;;
76852;SDS011;65825;52.232;10.566;2024-01-30T01:02:59;10.07;;;6.17;;
76852;SDS011;65825;52.232;10.566;2024-01-30T01:05:24;12.10;;;6.05;;
76852;SDS011;65825;52.232;10.566;2024-01-30T01:07:50;11.18;;;5.80;;
76852;SDS011;65825;52.232;10.566;2024-01-30T01:10:18;12.40;;;6.43;;
76852;SDS011;65825;52.232;10.566;2024-01-30T01:12:44;12.75;;;6.00;;
76852;SDS011;65825;52.232;10.566;2024-01-30T01:15:10;10.15;;;6.60;;
76852;SDS011;65825;52.232;10.566;2024-01-30T01:17:36;11.90;;;6.53;;
76852;SDS011;65825;52.232;10.566;2024-01-30T01:20:02;12.45;;;6.22;;
76852;SDS011;65825;52.232;10.566;2024-01-30T01:22:28;11.13;;;5.78;;
76852;SDS011;65825;52.232;10.566;2024-01-30T01:24:53;8.17;;;5.30;;
76852;SDS011;65825;52.232;10.566;2024-01-30T01:27:18;12.07;;;6.00;;
76852;SDS011;65825;52.232;10.566;2024-01-30T01:29:43;9.27;;;5.77;;
76852;SDS011;65825;52.232;10.566;2024-01-30T01:32:09;11.67;;;6.23;;
76852;SDS011;65825;52.232;10.566;2024-01-30T01:34:34;10.77;;;5.53;;
76852;SDS011;65825;52.232;10.566;2024-01-30T01:36:59;10.30;;;6.13;;
76852;SDS011;65825;52.232;10.566;2024-01-30T01:39:25;9.00;;;5.33;;
76852;SDS011;65825;52.232;10.566;2024-01-30T01:41:50;10.37;;;5.60;;
76852;SDS011;65825;52.232;10.566;2024-01-30T01:44:17;10.80;;;6.50;;
76852;SDS011;65825;52.232;10.566;2024-01-30T01:46:43;9.82;;;5.93;;
76852;SDS011;65825;52.232;10.566;2024-01-30T01:49:08;9.90;;;5.75;;
76852;SDS011;65825;52.232;10.566;2024-01-30T01:51:35;12.20;;;6.07;;
76852;SDS011;65825;52.232;10.566;2024-01-30T01:54:02;9.95;;;5.88;;
76852;SDS011;65825;52.232;10.566;2024-01-30T01:56:29;10.35;;;5.70;;
76852;SDS011;65825;52.232;10.566;2024-01-30T01:58:55;10.25;;;6.10;;
76852;SDS011;65825;52.232;10.566;2024-01-30T02:01:24;12.32;;;5.93;;
76852;SDS011;65825;52.232;10.566;2024-01-30T02:03:51;10.52;;;5.78;;
76852;SDS011;65825;52.232;10.566;2024-01-30T02:06:16;11.13;;;5.70;;
76852;SDS011;65825;52.232;10.566;2024-01-30T02:08:42;10.00;;;6.72;;
76852;SDS011;65825;52.232;10.566;2024-01-30T02:11:08;8.82;;;5.68;;
76852;SDS011;65825;52.232;10.566;2024-01-30T02:13:35;9.80;;;6.05;;
76852;SDS011;65825;52.232;10.566;2024-01-30T02:16:00;11.80;;;6.15;;
76852;SDS011;65825;52.232;10.566;2024-01-30T02:18:26;10.32;;;6.05;;
76852;SDS011;65825;52.232;10.566;2024-01-30T02:20:51;10.10;;;5.50;;
76852;SDS011;65825;52.232;10.566;2024-01-30T02:25:44;9.75;;;5.68;;
76852;SDS011;65825;52.232;10.566;2024-01-30T02:28:10;11.23;;;5.93;;
76852;SDS011;65825;52.232;10.566;2024-01-30T02:30:37;11.18;;;6.22;;
76852;SDS011;65825;52.232;10.566;2024-01-30T02:33:02;8.33;;;5.57;;
76852;SDS011;65825;52.232;10.566;2024-01-30T02:35:27;7.60;;;5.20;;
76852;SDS011;65825;52.232;10.566;2024-01-30T02:37:53;11.85;;;6.20;;
76852;SDS011;65825;52.232;10.566;2024-01-30T02:40:18;10.37;;;6.23;;
76852;SDS011;65825;52.232;10.566;2024-01-30T02:42:43;8.20;;;5.63;;
76852;SDS011;65825;52.232;10.566;2024-01-30T02:45:09;12.23;;;6.40;;
76852;SDS011;65825;52.232;10.566;2024-01-30T02:47:34;11.88;;;6.10;;
76852;SDS011;65825;52.232;10.566;2024-01-30T02:50:00;8.77;;;5.20;;
76852;SDS011;65825;52.232;10.566;2024-01-30T02:52:25;8.43;;;5.50;;
76852;SDS011;65825;52.232;10.566;2024-01-30T02:54:50;10.23;;;5.50;;
76852;SDS011;65825;52.232;10.566;2024-01-30T02:57:15;9.33;;;6.20;;
76852;SDS011;65825;52.232;10.566;2024-01-30T02:59:41;10.53;;;5.50;;
76852;SDS011;65825;52.232;10.566;2024-01-30T03:02:06;9.30;;;5.13;;
76852;SDS011;65825;52.232;10.566;2024-01-30T03:04:32;11.13;;;6.30;;
76852;SDS011;65825;52.232;10.566;2024-01-30T03:06:57;11.30;;;5.53;;
76852;SDS011;65825;52.232;10.566;2024-01-30T03:09:23;10.07;;;5.90;;
76852;SDS011;65825;52.232;10.566;2024-01-30T03:11:48;9.27;;;5.60;;
76852;SDS011;65825;52.232;10.566;2024-01-30T03:14:13;9.07;;;6.13;;
76852;SDS011;65825;52.232;10.566;2024-01-30T03:16:38;11.00;;;5.80;;
76852;SDS011;65825;52.232;10.566;2024-01-30T03:19:05;8.27;;;5.20;;
76852;SDS011;65825;52.232;10.566;2024-01-30T03:21:32;14.30;;;6.00;;
76852;SDS011;65825;52.232;10.566;2024-01-30T03:23:58;10.63;;;5.47;;
76852;SDS011;65825;52.232;10.566;2024-01-30T03:26:23;9.47;;;5.53;;
76852;SDS011;65825;52.232;10.566;2024-01-30T03:28:48;8.90;;;5.50;;
76852;SDS011;65825;52.232;10.566;2024-01-30T03:31:14;9.00;;;5.53;;
76852;SDS011;65825;52.232;10.566;2024-01-30T03:33:40;10.48;;;6.13;;
76852;SDS011;65825;52.232;10.566;2024-01-30T03:36:06;10.73;;;5.93;;
76852;SDS011;65825;52.232;10.566;2024-01-30T03:38:31;11.50;;;5.90;;
76852;SDS011;65825;52.232;10.566;2024-01-30T03:40:58;13.25;;;7.22;;
76852;SDS011;65825;52.232;10.566;2024-01-30T03:43:24;12.57;;;6.80;;
76852;SDS011;65825;52.232;10.566;2024-01-30T03:45:49;12.40;;;6.50;;
76852;SDS011;65825;52.232;10.566;2024-01-30T03:48:14;12.73;;;6.47;;
76852;SDS011;65825;52.232;10.566;2024-01-30T03:50:39;12.13;;;6.20;;
76852;SDS011;65825;52.232;10.566;2024-01-30T03:53:04;13.20;;;7.17;;
76852;SDS011;65825;52.232;10.566;2024-01-30T03:55:30;10.00;;;6.07;;
76852;SDS011;65825;52.232;10.566;2024-01-30T03:57:55;10.93;;;6.23;;
76852;SDS011;65825;52.232;10.566;2024-01-30T04:00:20;12.90;;;6.43;;
76852;SDS011;65825;52.232;10.566;2024-01-30T04:02:45;12.40;;;6.70;;
76852;SDS011;65825;52.232;10.566;2024-01-30T04:05:11;9.90;;;6.40;;
76852;SDS011;65825;52.232;10.566;2024-01-30T04:07:36;11.65;;;6.65;;
76852;SDS011;65825;52.232;10.566;2024-01-30T04:10:01;12.70;;;6.30;;
76852;SDS011;65825;52.232;10.566;2024-01-30T04:12:30;11.55;;;6.90;;
76852;SDS011;65825;52.232;10.566;2024-01-30T04:14:56;10.50;;;6.75;;
76852;SDS011;65825;52.232;10.566;2024-01-30T04:17:21;12.00;;;6.87;;
76852;SDS011;65825;52.232;10.566;2024-01-30T04:19:46;10.83;;;6.33;;
76852;SDS011;65825;52.232;10.566;2024-01-30T04:22:11;15.10;;;6.97;;
76852;SDS011;65825;52.232;10.566;2024-01-30T04:24:36;11.00;;;6.30;;
76852;SDS011;65825;52.232;10.566;2024-01-30T04:27:02;11.27;;;6.23;;
76852;SDS011;65825;52.232;10.566;2024-01-30T04:29:27;10.77;;;6.82;;
76852;SDS011;65825;52.232;10.566;2024-01-30T04:31:52;11.50;;;5.93;;
76852;SDS011;65825;52.232;10.566;2024-01-30T04:34:18;13.93;;;6.20;;
76852;SDS011;65825;52.232;10.566;2024-01-30T04:36:44;13.27;;;6.40;;
76852;SDS011;65825;52.232;10.566;2024-01-30T04:39:10;13.55;;;6.95;;
76852;SDS011;65825;52.232;10.566;2024-01-30T04:41:35;11.87;;;6.87;;
76852;SDS011;65825;52.232;10.566;2024-01-30T04:44:00;12.03;;;6.67;;
76852;SDS011;65825;52.232;10.566;2024-01-30T04:46:26;11.93;;;6.40;;
76852;SDS011;65825;52.232;10.566;2024-01-30T04:48:51;11.87;;;6.60;;
76852;SDS011;65825;52.232;10.566;2024-01-30T04:51:16;11.67;;;6.00;;
76852;SDS011;65825;52.232;10.566;2024-01-30T04:53:41;11.60;;;7.00;;
76852;SDS011;65825;52.232;10.566;2024-01-30T04:56:07;13.53;;;6.20;;
76852;SDS011;65825;52.232;10.566;2024-01-30T04:58:32;13.40;;;7.10;;
76852;SDS011;65825;52.232;10.566;2024-01-30T05:00:57;11.93;;;6.73;;
76852;SDS011;65825;52.232;10.566;2024-01-30T05:03:22;11.17;;;6.67;;
76852;SDS011;65825;52.232;10.566;2024-01-30T05:05:49;12.98;;;7.10;;
76852;SDS011;65825;52.232;10.566;2024-01-30T05:08:14;13.07;;;6.35;;
76852;SDS011;65825;52.232;10.566;2024-01-30T05:10:39;10.20;;;6.17;;
76852;SDS011;65825;52.232;10.566;2024-01-30T05:13:05;9.93;;;6.27;;
76852;SDS011;65825;52.232;10.566;2024-01-30T05:15:30;10.93;;;6.43;;
76852;SDS011;65825;52.232;10.566;2024-01-30T05:17:55;11.40;;;6.50;;
76852;SDS011;65825;52.232;10.566;2024-01-30T05:20:20;13.77;;;6.40;;
76852;SDS011;65825;52.232;10.566;2024-01-30T05:22:46;11.73;;;6.60;;
76852;SDS011;65825;52.232;10.566;2024-01-30T05:25:12;11.50;;;5.83;;
76852;SDS011;65825;52.232;10.566;2024-01-30T05:27:38;11.70;;;6.47;;
76852;SDS011;65825;52.232;10.566;2024-01-30T05:30:03;10.97;;;5.97;;
76852;SDS011;65825;52.232;10.566;2024-01-30T05:32:31;15.00;;;7.05;;
76852;SDS011;65825;52.232;10.566;2024-01-30T05:34:56;12.40;;;6.93;;
76852;SDS011;65825;52.232;10.566;2024-01-30T05:37:21;11.57;;;6.87;;
76852;SDS011;65825;52.232;10.566;2024-01-30T05:39:47;14.87;;;7.30;;
76852;SDS011;65825;52.232;10.566;2024-01-30T05:42:12;11.60;;;6.37;;
76852;SDS011;65825;52.232;10.566;2024-01-30T05:44:37;11.77;;;7.07;;
76852;SDS011;65825;52.232;10.566;2024-01-30T05:47:03;11.03;;;6.70;;
76852;SDS011;65825;52.232;10.566;2024-01-30T05:49:28;12.77;;;6.57;;
76852;SDS011;65825;52.232;10.566;2024-01-30T05:51:53;11.17;;;6.47;;
76852;SDS011;65825;52.232;10.566;2024-01-30T05:54:19;13.63;;;7.15;;
76852;SDS011;65825;52.232;10.566;2024-01-30T05:56:44;14.53;;;6.57;;
76852;SDS011;65825;52.232;10.566;2024-01-30T05:59:09;14.43;;;7.97;;
76852;SDS011;65825;52.232;10.566;2024-01-30T06:01:34;13.97;;;7.70;;
76852;SDS011;65825;52.232;10.566;2024-01-30T06:04:00;11.50;;;6.70;;
76852;SDS011;65825;52.232;10.566;2024-01-30T06:06:26;12.90;;;6.88;;
76852;SDS011;65825;52.232;10.566;2024-01-30T06:08:51;12.93;;;6.63;;
76852;SDS011;65825;52.232;10.566;2024-01-30T06:11:17;13.95;;;6.72;;
76852;SDS011;65825;52.232;10.566;2024-01-30T06:13:42;11.73;;;6.80;;
76852;SDS011;65825;52.232;10.566;2024-01-30T06:16:10;11.23;;;7.17;;
76852;SDS011;65825;52.232;10.566;2024-01-30T06:18:36;10.77;;;6.55;;
76852;SDS011;65825;52.232;10.566;2024-01-30T06:21:01;12.40;;;6.17;;
76852;SDS011;65825;52.232;10.566;2024-01-30T06:23:27;12.27;;;6.90;;
76852;SDS011;65825;52.232;10.566;2024-01-30T06:25:52;11.90;;;7.03;;
76852;SDS011;65825;52.232;10.566;2024-01-30T06:28:17;11.20;;;6.63;;
76852;SDS011;65825;52.232;10.566;2024-01-30T06:30:42;13.77;;;6.97;;
76852;SDS011;65825;52.232;10.566;2024-01-30T06:33:08;11.15;;;7.32;;
76852;SDS011;65825;52.232;10.566;2024-01-30T06:35:36;11.20;;;6.43;;
76852;SDS011;65825;52.232;10.566;2024-01-30T06:38:04;11.18;;;7.32;;
76852;SDS011;65825;52.232;10.566;2024-01-30T06:40:30;12.60;;;7.03;;
76852;SDS011;65825;52.232;10.566;2024-01-30T06:42:55;11.23;;;6.10;;
76852;SDS011;65825;52.232;10.566;2024-01-30T06:45:20;12.38;;;6.60;;
76852;SDS011;65825;52.232;10.566;2024-01-30T06:47:45;12.70;;;6.97;;
76852;SDS011;65825;52.232;10.566;2024-01-30T06:50:11;10.70;;;7.10;;
76852;SDS011;65825;52.232;10.566;2024-01-30T06:52:36;12.77;;;6.63;;
76852;SDS011;65825;52.232;10.566;2024-01-30T06:55:01;9.43;;;6.07;;
76852;SDS011;65825;52.232;10.566;2024-01-30T06:57:28;15.27;;;7.30;;
76852;SDS011;65825;52.232;10.566;2024-01-30T06:59:54;9.90;;;6.35;;
76852;SDS011;65825;52.232;10.566;2024-01-30T07:02:19;13.13;;;7.30;;
76852;SDS011;65825;52.232;10.566;2024-01-30T07:04:44;11.33;;;6.70;;
76852;SDS011;65825;52.232;10.566;2024-01-30T07:07:10;12.73;;;6.83;;
76852;SDS011;65825;52.232;10.566;2024-01-30T07:09:37;11.88;;;7.45;;
76852;SDS011;65825;52.232;10.566;2024-01-30T07:12:03;13.50;;;7.30;;
76852;SDS011;65825;52.232;10.566;2024-01-30T07:14:28;16.33;;;9.45;;
76852;SDS011;65825;52.232;10.566;2024-01-30T07:16:53;13.47;;;7.50;;
76852;SDS011;65825;52.232;10.566;2024-01-30T07:19:19;23.33;;;12.23;;
76852;SDS011;65825;52.232;10.566;2024-01-30T07:21:44;20.63;;;10.23;;
76852;SDS011;65825;52.232;10.566;2024-01-30T07:24:09;17.97;;;11.87;;
76852;SDS011;65825;52.232;10.566;2024-01-30T07:26:34;16.23;;;10.80;;
76852;SDS011;65825;52.232;10.566;2024-01-30T07:29:00;12.35;;;7.00;;
76852;SDS011;65825;52.232;10.566;2024-01-30T07:31:26;12.70;;;7.60;;
76852;SDS011;65825;52.232;10.566;2024-01-30T07:33:51;16.40;;;7.67;;
76852;SDS011;65825;52.232;10.566;2024-01-30T07:36:16;14.30;;;7.90;;
76852;SDS011;65825;52.232;10.566;2024-01-30T07:38:42;12.27;;;6.77;;
76852;SDS011;65825;52.232;10.566;2024-01-30T07:41:07;12.37;;;6.57;;
76852;SDS011;65825;52.232;10.566;2024-01-30T07:43:33;12.35;;;6.85;;
76852;SDS011;65825;52.232;10.566;2024-01-30T07:45:58;13.18;;;7.43;;
76852;SDS011;65825;52.232;10.566;2024-01-30T07:48:24;12.02;;;6.88;;
76852;SDS011;65825;52.232;10.566;2024-01-30T07:50:50;12.30;;;7.57;;
76852;SDS011;65825;52.232;10.566;2024-01-30T07:53:15;13.97;;;7.03;;
76852;SDS011;65825;52.232;10.566;2024-01-30T07:55:40;11.40;;;6.30;;
76852;SDS011;65825;52.232;10.566;2024-01-30T07:58:06;11.45;;;6.68;;
76852;SDS011;65825;52.232;10.566;2024-01-30T08:00:31;10.80;;;6.53;;
76852;SDS011;65825;52.232;10.566;2024-01-30T08:02:57;10.95;;;6.82;;
76852;SDS011;65825;52.232;10.566;2024-01-30T08:05:22;11.90;;;6.32;;
76852;SDS011;65825;52.232;10.566;2024-01-30T08:07:48;13.18;;;6.63;;
76852;SDS011;65825;52.232;10.566;2024-01-30T08:10:14;11.05;;;6.70;;
76852;SDS011;65825;52.232;10.566;2024-01-30T08:12:41;12.02;;;7.65;;
76852;SDS011;65825;52.232;10.566;2024-01-30T08:15:06;12.18;;;7.22;;
76852;SDS011;65825;52.232;10.566;2024-01-30T08:17:32;14.25;;;6.40;;
76852;SDS011;65825;52.232;10.566;2024-01-30T08:19:58;14.52;;;7.78;;
76852;SDS011;65825;52.232;10.566;2024-01-30T08:22:23;15.40;;;6.85;;
76852;SDS011;65825;52.232;10.566;2024-01-30T08:24:48;13.30;;;7.57;;
76852;SDS011;65825;52.232;10.566;2024-01-30T08:27:14;16.00;;;8.50;;
76852;SDS011;65825;52.232;10.566;2024-01-30T08:29:39;13.68;;;6.40;;
76852;SDS011;65825;52.232;10.566;2024-01-30T08:32:08;16.77;;;7.87;;
76852;SDS011;65825;52.232;10.566;2024-01-30T08:34:33;30.80;;;13.35;;
76852;SDS011;65825;52.232;10.566;2024-01-30T08:36:58;26.30;;;11.02;;
76852;SDS011;65825;52.232;10.566;2024-01-30T08:39:24;20.40;;;8.93;;
76852;SDS011;65825;52.232;10.566;2024-01-30T08:41:49;12.13;;;6.07;;
76852;SDS011;65825;52.232;10.566;2024-01-30T08:44:15;10.32;;;6.10;;
76852;SDS011;65825;52.232;10.566;2024-01-30T08:46:40;10.88;;;5.30;;
76852;SDS011;65825;52.232;10.566;2024-01-30T08:49:06;9.23;;;5.87;;
76852;SDS011;65825;52.232;10.566;2024-01-30T08:51:31;10.70;;;5.60;;
76852;SDS011;65825;52.232;10.566;2024-01-30T08:53:56;10.70;;;5.13;;
76852;SDS011;65825;52.232;10.566;2024-01-30T08:56:21;8.50;;;5.13;;
76852;SDS011;65825;52.232;10.566;2024-01-30T08:58:47;7.90;;;5.53;;
76852;SDS011;65825;52.232;10.566;2024-01-30T09:01:12;14.87;;;6.60;;
76852;SDS011;65825;52.232;10.566;2024-01-30T09:03:37;10.93;;;6.17;;
76852;SDS011;65825;52.232;10.566;2024-01-30T09:06:10;11.23;;;6.20;;
76852;SDS011;65825;52.232;10.566;2024-01-30T09:08:36;12.38;;;5.93;;
76852;SDS011;65825;52.232;10.566;2024-01-30T09:11:08;12.02;;;6.00;;
76852;SDS011;65825;52.232;10.566;2024-01-30T09:13:34;10.15;;;6.10;;
76852;SDS011;65825;52.232;10.566;2024-01-30T09:15:59;11.17;;;5.57;;
76852;SDS011;65825;52.232;10.566;2024-01-30T09:18:25;13.63;;;5.83;;
76852;SDS011;65825;52.232;10.566;2024-01-30T09:20:50;12.47;;;6.00;;
76852;SDS011;65825;52.232;10.566;2024-01-30T09:23:15;10.20;;;6.28;;
76852;SDS011;65825;52.232;10.566;2024-01-30T09:25:42;10.80;;;5.82;;
76852;SDS011;65825;52.232;10.566;2024-01-30T09:28:07;12.30;;;6.20;;
76852;SDS011;65825;52.232;10.566;2024-01-30T09:30:32;9.47;;;5.50;;
76852;SDS011;65825;52.232;10.566;2024-01-30T09:32:58;9.57;;;6.50;;
76852;SDS011;65825;52.232;10.566;2024-01-30T09:35:23;9.80;;;6.30;;
76852;SDS011;65825;52.232;10.566;2024-01-30T09:37:48;11.50;;;6.50;;
76852;SDS011;65825;52.232;10.566;2024-01-30T09:40:14;10.80;;;6.57;;
76852;SDS011;65825;52.232;10.566;2024-01-30T09:42:43;10.85;;;6.22;;
76852;SDS011;65825;52.232;10.566;2024-01-30T09:45:12;10.88;;;5.78;;
76852;SDS011;65825;52.232;10.566;2024-01-30T09:47:42;12.70;;;6.80;;
76852;SDS011;65825;52.232;10.566;2024-01-30T09:50:09;10.82;;;5.95;;
76852;SDS011;65825;52.232;10.566;2024-01-30T09:55:01;9.60;;;5.43;;
76852;SDS011;65825;52.232;10.566;2024-01-30T09:57:34;11.00;;;6.93;;
76852;SDS011;65825;52.232;10.566;2024-01-30T10:00:00;11.85;;;6.72;;
76852;SDS011;65825;52.232;10.566;2024-01-30T10:02:26;9.88;;;6.28;;
76852;SDS011;65825;52.232;10.566;2024-01-30T10:04:52;8.53;;;6.07;;
76852;SDS011;65825;52.232;10.566;2024-01-30T10:07:18;9.82;;;5.90;;
76852;SDS011;65825;52.232;10.566;2024-01-30T10:09:44;9.85;;;6.22;;
76852;SDS011;65825;52.232;10.566;2024-01-30T10:12:10;11.25;;;6.57;;
76852;SDS011;65825;52.232;10.566;2024-01-30T10:14:42;13.50;;;6.07;;
76852;SDS011;65825;52.232;10.566;2024-01-30T10:17:11;10.63;;;5.82;;
76852;SDS011;65825;52.232;10.566;2024-01-30T10:19:37;9.70;;;6.07;;
76852;SDS011;65825;52.232;10.566;2024-01-30T10:22:06;10.95;;;6.35;;
76852;SDS011;65825;52.232;10.566;2024-01-30T10:24:35;10.55;;;5.95;;
76852;SDS011;65825;52.232;10.566;2024-01-30T10:27:01;10.13;;;5.32;;
76852;SDS011;65825;52.232;10.566;2024-01-30T10:29:27;8.20;;;5.90;;
76852;SDS011;65825;52.232;10.566;2024-01-30T10:32:03;8.63;;;5.65;;
76852;SDS011;65825;52.232;10.566;2024-01-30T10:34:30;11.73;;;5.90;;
76852;SDS011;65825;52.232;10.566;2024-01-30T10:37:11;11.30;;;6.00;;
76852;SDS011;65825;52.232;10.566;2024-01-30T10:39:45;8.57;;;5.80;;
76852;SDS011;65825;52.232;10.566;2024-01-30T10:42:15;11.05;;;5.65;;
76852;SDS011;65825;52.232;10.566;2024-01-30T10:47:34;9.55;;;6.03;;
76852;SDS011;65825;52.232;10.566;2024-01-30T10:50:04;10.60;;;6.20;;
76852;SDS011;65825;52.232;10.566;2024-01-30T10:52:30;8.45;;;5.72;;
76852;SDS011;65825;52.232;10.566;2024-01-30T10:54:57;9.23;;;5.85;;
76852;SDS011;65825;52.232;10.566;2024-01-30T10:57:23;10.10;;;5.75;;
76852;SDS011;65825;52.232;10.566;2024-01-30T10:59:51;9.27;;;5.70;;
76852;SDS011;65825;52.232;10.566;2024-01-30T11:02:18;11.90;;;6.47;;
76852;SDS011;65825;52.232;10.566;2024-01-30T11:04:43;9.60;;;5.85;;
76852;SDS011;65825;52.232;10.566;2024-01-30T11:07:17;10.60;;;6.78;;
76852;SDS011;65825;52.232;10.566;2024-01-30T11:09:52;10.45;;;6.60;;
76852;SDS011;65825;52.232;10.566;2024-01-30T11:12:28;14.05;;;9.05;;
76852;SDS011;65825;52.232;10.566;2024-01-30T11:15:02;10.93;;;6.80;;
76852;SDS011;65825;52.232;10.566;2024-01-30T11:17:39;9.40;;;5.80;;
76852;SDS011;65825;52.232;10.566;2024-01-30T11:20:29;13.23;;;7.38;;
76852;SDS011;65825;52.232;10.566;2024-01-30T11:23:00;15.85;;;9.15;;
76852;SDS011;65825;52.232;10.566;2024-01-30T11:25:31;9.07;;;6.07;;
76852;SDS011;65825;52.232;10.566;2024-01-30T11:27:57;18.17;;;11.18;;
76852;SDS011;65825;52.232;10.566;2024-01-30T11:35:56;9.55;;;5.95;;
76852;SDS011;65825;52.232;10.566;2024-01-30T11:38:25;13.10;;;7.55;;
76852;SDS011;65825;52.232;10.566;2024-01-30T11:40:53;8.82;;;5.50;;
76852;SDS011;65825;52.232;10.566;2024-01-30T11:43:19;14.27;;;7.97;;
76852;SDS011;65825;52.232;10.566;2024-01-30T11:45:45;10.30;;;5.67;;
76852;SDS011;65825;52.232;10.566;2024-01-30T11:48:13;7.93;;;5.43;;
76852;SDS011;65825;52.232;10.566;2024-01-30T11:50:39;9.85;;;6.30;;
76852;SDS011;65825;52.232;10.566;2024-01-30T11:53:05;9.45;;;6.10;;
76852;SDS011;65825;52.232;10.566;2024-01-30T11:55:31;10.00;;;6.70;;
76852;SDS011;65825;52.232;10.566;2024-01-30T11:57:58;6.82;;;4.72;;
76852;SDS011;65825;52.232;10.566;2024-01-30T12:00:24;7.57;;;5.03;;
76852;SDS011;65825;52.232;10.566;2024-01-30T12:02:50;12.27;;;5.90;;
76852;SDS011;65825;52.232;10.566;2024-01-30T12:05:16;8.65;;;6.20;;
76852;SDS011;65825;52.232;10.566;2024-01-30T12:07:44;8.70;;;5.53;;
76852;SDS011;65825;52.232;10.566;2024-01-30T12:10:09;7.22;;;5.05;;
76852;SDS011;65825;52.232;10.566;2024-01-30T12:12:36;7.93;;;5.10;;
76852;SDS011;65825;52.232;10.566;2024-01-30T12:15:02;7.68;;;5.22;;
76852;SDS011;65825;52.232;10.566;2024-01-30T12:17:32;9.88;;;5.90;;
76852;SDS011;65825;52.232;10.566;2024-01-30T12:20:05;10.93;;;6.55;;
76852;SDS011;65825;52.232;10.566;2024-01-30T12:22:33;9.57;;;5.95;;
76852;SDS011;65825;52.232;10.566;2024-01-30T12:25:02;9.15;;;5.63;;
76852;SDS011;65825;52.232;10.566;2024-01-30T12:27:27;14.50;;;8.00;;
76852;SDS011;65825;52.232;10.566;2024-01-30T12:29:56;15.70;;;8.77;;
76852;SDS011;65825;52.232;10.566;2024-01-30T12:32:23;12.30;;;6.95;;
76852;SDS011;65825;52.232;10.566;2024-01-30T12:34:49;10.88;;;6.25;;
76852;SDS011;65825;52.232;10.566;2024-01-30T12:37:14;10.05;;;5.30;;
76852;SDS011;65825;52.232;10.566;2024-01-30T12:39:45;8.82;;;5.32;;
76852;SDS011;65825;52.232;10.566;2024-01-30T12:42:10;10.77;;;6.03;;
76852;SDS011;65825;52.232;10.566;2024-01-30T12:44:36;8.88;;;5.95;;
76852;SDS011;65825;52.232;10.566;2024-01-30T12:47:04;7.65;;;4.95;;
76852;SDS011;65825;52.232;10.566;2024-01-30T12:49:30;9.40;;;5.53;;
76852;SDS011;65825;52.232;10.566;2024-01-30T12:51:55;10.10;;;5.00;;
76852;SDS011;65825;52.232;10.566;2024-01-30T12:54:22;8.32;;;5.03;;
76852;SDS011;65825;52.232;10.566;2024-01-30T12:56:48;8.02;;;6.63;;
76852;SDS011;65825;52.232;10.566;2024-01-30T12:59:13;10.73;;;5.90;;
76852;SDS011;65825;52.232;10.566;2024-01-30T13:01:38;8.23;;;4.70;;
76852;SDS011;65825;52.232;10.566;2024-01-30T13:04:04;10.15;;;5.10;;
76852;SDS011;65825;52.232;10.566;2024-01-30T13:06:29;8.73;;;5.17;;
76852;SDS011;65825;52.232;10.566;2024-01-30T13:08:54;7.63;;;4.20;;
76852;SDS011;65825;52.232;10.566;2024-01-30T13:11:20;7.80;;;4.43;;
76852;SDS011;65825;52.232;10.566;2024-01-30T13:13:47;8.32;;;4.95;;
76852;SDS011;65825;52.232;10.566;2024-01-30T13:16:13;7.95;;;4.20;;
76852;SDS011;65825;52.232;10.566;2024-01-30T13:18:38;7.53;;;5.28;;
76852;SDS011;65825;52.232;10.566;2024-01-30T13:21:03;6.27;;;4.63;;
76852;SDS011;65825;52.232;10.566;2024-01-30T13:23:29;8.85;;;5.10;;
76852;SDS011;65825;52.232;10.566;2024-01-30T13:25:57;10.10;;;4.53;;
76852;SDS011;65825;52.232;10.566;2024-01-30T13:28:26;10.32;;;4.53;;
76852;SDS011;65825;52.232;10.566;2024-01-30T13:30:52;10.35;;;4.80;;
76852;SDS011;65825;52.232;10.566;2024-01-30T13:33:17;6.20;;;4.30;;
76852;SDS011;65825;52.232;10.566;2024-01-30T13:35:43;10.38;;;5.18;;
76852;SDS011;65825;52.232;10.566;2024-01-30T13:45:54;8.45;;;5.88;;
76852;SDS011;65825;52.232;10.566;2024-01-30T13:48:20;12.20;;;6.50;;
76852;SDS011;65825;52.232;10.566;2024-01-30T13:50:45;8.40;;;5.55;;
76852;SDS011;65825;52.232;10.566;2024-01-30T13:53:11;13.07;;;6.45;;
76852;SDS011;65825;52.232;10.566;2024-01-30T13:55:37;12.82;;;5.57;;
76852;SDS011;65825;52.232;10.566;2024-01-30T13:58:03;11.50;;;5.90;;
76852;SDS011;65825;52.232;10.566;2024-01-30T14:00:28;16.20;;;6.50;;
76852;SDS011;65825;52.232;10.566;2024-01-30T14:02:54;12.87;;;7.27;;
76852;SDS011;65825;52.232;10.566;2024-01-30T14:05:23;12.05;;;5.93;;
76852;SDS011;65825;52.232;10.566;2024-01-30T14:07:49;9.40;;;5.20;;
76852;SDS011;65825;52.232;10.566;2024-01-30T14:10:18;10.98;;;5.25;;
76852;SDS011;65825;52.232;10.566;2024-01-30T14:12:44;11.50;;;5.20;;
76852;SDS011;65825;52.232;10.566;2024-01-30T14:15:09;9.70;;;5.38;;
76852;SDS011;65825;52.232;10.566;2024-01-30T14:17:36;8.27;;;5.65;;
76852;SDS011;65825;52.232;10.566;2024-01-30T14:20:02;9.82;;;5.45;;
76852;SDS011;65825;52.232;10.566;2024-01-30T14:22:29;8.60;;;5.18;;
76852;SDS011;65825;52.232;10.566;2024-01-30T14:24:54;9.77;;;5.20;;
76852;SDS011;65825;52.232;10.566;2024-01-30T14:27:21;8.93;;;5.47;;
76852;SDS011;65825;52.232;10.566;2024-01-30T14:29:47;6.82;;;4.40;;
76852;SDS011;65825;52.232;10.566;2024-01-30T14:32:12;9.13;;;4.97;;
76852;SDS011;65825;52.232;10.566;2024-01-30T14:34:37;7.15;;;4.47;;
76852;SDS011;65825;52.232;10.566;2024-01-30T14:37:04;9.93;;;5.57;;
76852;SDS011;65825;52.232;10.566;2024-01-30T14:39:29;12.05;;;6.80;;
76852;SDS011;65825;52.232;10.566;2024-01-30T14:41:55;13.13;;;7.65;;